createdAt,value
2018-05-03T00:00:18.201Z,76.50
2018-05-03T00:02:46.421Z,76.70
2018-05-03T00:05:13.980Z,76.70
2018-05-03T00:07:41.439Z,76.70
2018-05-03T00:10:08.929Z,77.00
2018-05-03T00:12:36.402Z,77.00
2018-05-03T00:15:03.877Z,77.00
2018-05-03T00:17:32.136Z,77.20
2018-05-03T00:19:59.583Z,77.10
2018-05-03T00:22:27.048Z,77.30
2018-05-03T00:24:54.520Z,77.30
2018-05-03T00:27:22.733Z,77.50
2018-05-03T00:29:50.213Z,78.20
2018-05-03T00:32:17.685Z,77.50
2018-05-03T00:34:45.156Z,77.50
2018-05-03T00:37:12.605Z,77.60
2018-05-03T00:39:40.072Z,77.70
2018-05-03T00:42:07.540Z,77.70
2018-05-03T00:44:35.756Z,78.10
2018-05-03T00:47:03.236Z,78.10
2018-05-03T00:49:31.449Z,78.30
2018-05-03T00:51:59.661Z,78.50
2018-05-03T00:54:38.973Z,78.40
2018-05-03T00:57:06.419Z,78.50
2018-05-03T00:59:34.693Z,78.80
2018-05-03T01:02:02.169Z,78.80
2018-05-03T01:04:29.612Z,78.90
2018-05-03T01:06:57.100Z,78.90
2018-05-03T01:09:24.564Z,78.90
2018-05-03T01:11:52.043Z,78.90
2018-05-03T01:14:19.490Z,78.90
2018-05-03T01:16:47.713Z,79.20
2018-05-03T01:19:15.193Z,79.20
2018-05-03T01:21:42.637Z,79.40
2018-05-03T01:24:10.131Z,79.60
2018-05-03T01:26:37.605Z,79.60
2018-05-03T01:29:05.077Z,79.70
2018-05-03T01:31:32.515Z,79.80
2018-05-03T01:33:59.984Z,79.90
2018-05-03T01:36:34.349Z,80.00
2018-05-03T01:39:01.812Z,80.10
2018-05-03T01:41:29.289Z,80.20
2018-05-03T01:43:57.520Z,80.40
2018-05-03T01:46:25.768Z,80.50
2018-05-03T01:48:53.219Z,80.40
2018-05-03T01:51:20.940Z,80.50
2018-05-03T01:53:48.424Z,80.70
2018-05-03T01:56:15.885Z,80.80
2018-05-03T01:58:43.356Z,81.00
2018-05-03T02:01:10.812Z,81.00
2018-05-03T02:03:38.294Z,81.00
2018-05-03T02:06:05.768Z,81.00
2018-05-03T02:08:35.062Z,81.20
2018-05-03T02:11:02.625Z,81.30
2018-05-03T02:13:30.107Z,81.30
2018-05-03T02:15:57.581Z,81.40
2018-05-03T02:18:25.041Z,81.50
2018-05-03T02:20:52.497Z,81.60
2018-05-03T02:23:19.971Z,81.70
2018-05-03T02:25:47.424Z,81.90
2018-05-03T02:28:14.904Z,82.10
2018-05-03T02:30:42.364Z,81.90
2018-05-03T02:33:10.602Z,82.10
2018-05-03T02:35:38.058Z,82.10
2018-05-03T02:38:05.517Z,82.10
2018-05-03T02:43:06.778Z,82.30
2018-05-03T02:45:34.221Z,82.40
2018-05-03T02:48:01.659Z,82.60
2018-05-03T02:50:29.105Z,82.80
2018-05-03T02:52:56.545Z,82.80
2018-05-03T02:55:24.756Z,83.10
2018-05-03T02:58:09.666Z,83.00
2018-05-03T03:00:54.821Z,83.10
2018-05-03T03:03:53.417Z,83.10
2018-05-03T03:06:39.257Z,83.20
2018-05-03T03:12:32.231Z,83.40
2018-05-03T03:15:17.269Z,83.40
2018-05-03T03:18:03.044Z,83.60
2018-05-03T03:20:57.588Z,83.60
2018-05-03T03:23:42.710Z,83.60
2018-05-03T03:29:44.084Z,84.10
2018-05-03T03:32:23.303Z,83.90
2018-05-03T03:35:00.385Z,84.10
2018-05-03T03:37:39.545Z,84.00
2018-05-03T03:40:24.752Z,84.10
2018-05-03T03:45:50.664Z,84.40
2018-05-03T03:48:18.151Z,84.10
2018-05-03T03:50:45.577Z,84.10
2018-05-03T03:53:13.079Z,84.20
2018-05-03T03:55:40.487Z,84.50
2018-05-03T03:58:07.945Z,85.40
2018-05-03T04:00:36.175Z,85.60
2018-05-03T04:03:03.613Z,84.90
2018-05-03T04:05:31.079Z,85.10
2018-05-03T04:07:58.561Z,85.20
2018-05-03T04:10:26.019Z,85.30
2018-05-03T04:12:53.455Z,85.40
2018-05-03T04:15:20.921Z,85.50
2018-05-03T04:18:00.138Z,85.60
2018-05-03T04:20:46.225Z,85.70
2018-05-03T04:26:15.173Z,86.20
2018-05-03T04:28:42.631Z,85.80
2018-05-03T04:31:10.087Z,86.00
2018-05-03T04:33:37.545Z,86.10
2018-05-03T04:36:05.765Z,86.40
2018-05-03T04:38:33.320Z,86.40
2018-05-03T04:41:00.778Z,86.60
2018-05-03T04:43:28.257Z,86.70
2018-05-03T04:45:55.716Z,86.90
2018-05-03T04:48:23.157Z,87.10
2018-05-03T04:50:50.621Z,87.20
2018-05-03T04:53:18.066Z,87.10
2018-05-03T04:55:45.528Z,87.40
2018-05-03T04:58:12.967Z,87.50
2018-05-03T05:00:40.429Z,87.40
2018-05-03T05:03:07.878Z,87.40
2018-05-03T05:05:35.343Z,87.30
2018-05-03T05:08:02.793Z,87.30
2018-05-03T05:10:30.291Z,87.20
2018-05-03T05:12:57.715Z,87.00
2018-05-03T05:15:25.176Z,86.60
2018-05-03T05:17:52.723Z,86.20
2018-05-03T05:20:20.107Z,86.00
2018-05-03T05:22:47.540Z,85.80
2018-05-03T05:25:14.992Z,85.50
2018-05-03T05:27:42.477Z,84.10
2018-05-03T05:30:09.921Z,83.70
2018-05-03T05:32:37.400Z,83.00
2018-05-03T05:35:04.829Z,82.40
2018-05-03T05:37:32.328Z,81.00
2018-05-03T05:39:59.768Z,80.00
2018-05-03T05:42:27.204Z,80.10
2018-05-03T05:44:54.676Z,78.90
2018-05-03T05:47:22.119Z,78.10
2018-05-03T05:49:49.573Z,77.70
2018-05-03T05:52:17.033Z,77.30
2018-05-03T05:54:44.492Z,76.40
2018-05-03T05:57:11.953Z,76.10
2018-05-03T05:59:40.185Z,75.80
2018-05-03T06:02:07.629Z,75.80
2018-05-03T06:04:35.869Z,74.50
2018-05-03T06:07:03.329Z,74.40
2018-05-03T06:09:30.769Z,74.20
2018-05-03T06:11:58.233Z,74.30
2018-05-03T06:14:25.674Z,74.00
2018-05-03T06:16:53.124Z,73.80
2018-05-03T06:19:20.566Z,73.40
2018-05-03T06:21:48.040Z,73.60
2018-05-03T06:24:15.500Z,73.10
2018-05-03T06:26:43.725Z,72.90
2018-05-03T06:29:11.251Z,72.80
2018-05-03T06:31:38.736Z,72.80
2018-05-03T06:34:06.164Z,72.80
2018-05-03T06:36:33.637Z,72.90
2018-05-03T06:39:01.082Z,72.50
2018-05-03T06:41:28.721Z,72.40
2018-05-03T06:43:56.301Z,72.20
2018-05-03T06:46:23.764Z,71.80
2018-05-03T06:48:51.213Z,71.70
2018-05-03T06:51:18.701Z,72.00
2018-05-03T06:53:46.133Z,71.60
2018-05-03T06:56:13.614Z,71.10
2018-05-03T06:58:41.065Z,71.40
2018-05-03T07:01:08.505Z,71.80
2018-05-03T07:03:35.974Z,71.20
2018-05-03T07:06:03.417Z,71.30
2018-05-03T07:08:30.873Z,70.70
2018-05-03T07:10:58.329Z,70.40
2018-05-03T07:13:25.812Z,70.50
2018-05-03T07:15:53.260Z,70.50
2018-05-03T07:18:20.706Z,70.10
2018-05-03T07:20:48.164Z,70.00
2018-05-03T07:23:15.638Z,70.20
2018-05-03T07:25:43.074Z,70.40
2018-05-03T07:28:10.534Z,70.30
2018-05-03T07:30:37.989Z,69.00
2018-05-03T07:33:05.464Z,68.50
2018-05-03T07:35:32.926Z,68.30
2018-05-03T07:38:00.376Z,68.50
2018-05-03T07:40:27.821Z,68.00
2018-05-03T07:42:55.276Z,67.80
2018-05-03T07:45:22.721Z,66.90
2018-05-03T07:47:50.190Z,67.30
2018-05-03T07:50:17.667Z,67.20
2018-05-03T07:52:45.116Z,65.90
2018-05-03T07:55:12.563Z,65.10
2018-05-03T07:57:40.022Z,64.60
2018-05-03T08:00:07.501Z,63.30
2018-05-03T08:02:35.737Z,63.50
2018-05-03T08:05:03.197Z,63.20
2018-05-03T08:07:30.654Z,63.10
2018-05-03T08:09:58.144Z,61.90
2018-05-03T08:12:25.582Z,61.90
2018-05-03T08:14:53.050Z,61.70
2018-05-03T08:17:20.492Z,61.30
2018-05-03T08:19:47.985Z,60.50
2018-05-03T08:22:16.277Z,60.50
2018-05-03T08:24:43.655Z,60.50
2018-05-03T08:27:11.165Z,60.90
2018-05-03T08:29:38.646Z,61.00
2018-05-03T08:32:06.081Z,61.00
2018-05-03T08:34:34.304Z,58.50
2018-05-03T08:37:01.774Z,59.00
2018-05-03T08:39:29.218Z,58.80
2018-05-03T08:41:56.685Z,58.30
2018-05-03T08:44:24.144Z,57.80
2018-05-03T08:46:51.629Z,57.90
2018-05-03T08:49:19.085Z,57.30
2018-05-03T08:51:46.548Z,57.30
2018-05-03T08:54:13.972Z,56.70
2018-05-03T08:56:41.533Z,55.60
2018-05-03T08:59:08.996Z,55.20
2018-05-03T09:01:36.731Z,54.80
2018-05-03T09:04:04.109Z,55.20
2018-05-03T09:06:31.554Z,54.80
2018-05-03T09:08:59.048Z,53.00
2018-05-03T09:11:26.581Z,52.70
2018-05-03T09:13:54.073Z,51.40
2018-05-03T09:16:21.517Z,51.80
2018-05-03T09:18:50.489Z,49.80
2018-05-03T09:21:18.050Z,49.70
2018-05-03T09:23:45.521Z,48.30
2018-05-03T09:26:13.744Z,47.20
2018-05-03T09:28:41.253Z,47.20
2018-05-03T09:31:08.730Z,46.90
2018-05-03T09:33:36.928Z,45.90
2018-05-03T09:36:04.379Z,45.80
2018-05-03T09:38:31.812Z,46.30
2018-05-03T09:40:59.349Z,44.30
2018-05-03T09:43:26.825Z,43.20
2018-05-03T09:45:54.441Z,44.00
2018-05-03T09:48:21.941Z,43.50
2018-05-03T09:50:49.485Z,43.40
2018-05-03T09:53:17.080Z,42.70
2018-05-03T09:55:44.529Z,41.60
2018-05-03T09:58:11.996Z,41.10
2018-05-03T10:00:40.228Z,40.00
2018-05-03T10:03:07.694Z,40.10
2018-05-03T10:05:35.193Z,41.70
2018-05-03T10:08:03.401Z,39.40
2018-05-03T10:10:30.834Z,39.40
2018-05-03T10:12:59.065Z,39.60
2018-05-03T10:15:26.558Z,39.50
2018-05-03T10:17:54.899Z,39.90
2018-05-03T10:20:22.387Z,39.90
2018-05-03T10:22:49.832Z,40.80
2018-05-03T10:25:17.277Z,39.20
2018-05-03T10:27:44.794Z,39.10
2018-05-03T10:30:12.286Z,39.60
2018-05-03T10:32:40.447Z,39.00
2018-05-03T10:35:07.884Z,38.90
2018-05-03T10:37:35.386Z,37.90
2018-05-03T10:40:02.873Z,36.90
2018-05-03T10:42:30.486Z,37.00
2018-05-03T10:44:57.924Z,37.20
2018-05-03T10:47:25.396Z,37.20
2018-05-03T10:49:52.933Z,36.10
2018-05-03T10:52:20.402Z,35.80
2018-05-03T10:54:47.881Z,35.50
2018-05-03T10:57:15.329Z,35.50
2018-05-03T10:59:42.788Z,34.40
2018-05-03T11:02:10.252Z,33.80
2018-05-03T11:04:37.812Z,35.20
2018-05-03T11:07:05.269Z,35.10
2018-05-03T11:09:32.848Z,34.80
2018-05-03T11:12:00.345Z,33.50
2018-05-03T11:14:27.869Z,34.10
2018-05-03T11:16:55.361Z,34.70
2018-05-03T11:19:22.859Z,34.70
2018-05-03T11:21:50.281Z,35.50
2018-05-03T11:24:18.504Z,35.90
2018-05-03T11:26:45.949Z,36.40
2018-05-03T11:29:13.426Z,35.70
2018-05-03T11:31:40.990Z,36.00
2018-05-03T11:34:08.540Z,35.80
2018-05-03T11:36:36.111Z,36.60
2018-05-03T11:39:04.396Z,36.40
2018-05-03T11:41:31.866Z,36.40
2018-05-03T11:44:00.113Z,35.80
2018-05-03T11:46:27.811Z,35.70
2018-05-03T11:48:55.841Z,36.70
2018-05-03T11:51:24.049Z,36.60
2018-05-03T11:53:51.501Z,36.60
2018-05-03T11:56:18.972Z,35.20
2018-05-03T11:58:46.422Z,34.70
2018-05-03T12:01:13.861Z,34.20
2018-05-03T12:03:41.316Z,33.30
2018-05-03T12:06:08.753Z,32.50
2018-05-03T12:08:36.221Z,31.90
2018-05-03T12:11:03.665Z,32.40
2018-05-03T12:13:31.121Z,33.00
2018-05-03T12:15:59.007Z,34.10
2018-05-03T12:18:26.448Z,33.80
2018-05-03T12:20:53.913Z,33.70
2018-05-03T12:23:21.364Z,33.30
2018-05-03T12:25:48.848Z,32.50
2018-05-03T12:28:16.292Z,32.40
2018-05-03T12:30:43.756Z,32.80
2018-05-03T12:33:11.272Z,31.60
2018-05-03T12:35:38.761Z,31.30
2018-05-03T12:38:06.299Z,31.20
2018-05-03T12:40:33.878Z,31.50
2018-05-03T12:43:01.343Z,31.00
2018-05-03T12:45:28.779Z,29.80
2018-05-03T12:47:56.245Z,29.80
2018-05-03T12:50:23.693Z,30.00
2018-05-03T12:52:51.301Z,29.10
2018-05-03T12:55:19.646Z,28.70
2018-05-03T12:57:47.304Z,28.70
2018-05-03T13:00:14.747Z,29.70
2018-05-03T13:02:42.204Z,29.80
2018-05-03T13:05:10.892Z,30.00
2018-05-03T13:07:38.358Z,29.50
2018-05-03T13:10:05.812Z,29.70
2018-05-03T13:12:33.254Z,29.80
2018-05-03T13:15:00.728Z,29.90
2018-05-03T13:17:28.174Z,29.80
2018-05-03T13:19:56.324Z,29.40
2018-05-03T13:22:25.297Z,29.00
2018-05-03T13:24:56.341Z,29.10
2018-05-03T13:27:26.152Z,28.60
2018-05-03T13:30:05.078Z,29.00
2018-05-03T13:32:34.223Z,28.80
2018-05-03T13:35:01.770Z,28.40
2018-05-03T13:37:29.225Z,28.50
2018-05-03T13:39:56.809Z,29.20
2018-05-03T13:42:24.266Z,29.60
2018-05-03T13:44:52.520Z,29.60
2018-05-03T13:47:20.011Z,29.40
2018-05-03T13:49:47.426Z,29.80
2018-05-03T13:52:14.863Z,29.30
2018-05-03T13:54:42.323Z,28.50
2018-05-03T13:57:09.829Z,28.00
2018-05-03T13:59:37.313Z,27.50
2018-05-03T14:02:04.938Z,28.00
2018-05-03T14:04:32.405Z,28.60
2018-05-03T14:06:59.864Z,28.60
2018-05-03T14:09:27.309Z,28.60
2018-05-03T14:11:55.743Z,27.60
2018-05-03T14:14:23.966Z,27.60
2018-05-03T14:16:51.539Z,27.70
2018-05-03T14:19:19.041Z,27.90
2018-05-03T14:21:46.445Z,27.80
2018-05-03T14:24:13.909Z,27.70
2018-05-03T14:26:41.357Z,28.00
2018-05-03T14:29:08.824Z,28.50
2018-05-03T14:31:36.294Z,29.10
2018-05-03T14:34:03.753Z,29.50
2018-05-03T14:36:31.210Z,29.70
2018-05-03T14:38:59.440Z,29.80
2018-05-03T14:41:26.929Z,29.70
2018-05-03T14:43:54.365Z,30.20
2018-05-03T14:46:21.840Z,30.80
2018-05-03T14:48:49.289Z,31.50
2018-05-03T14:51:16.723Z,31.90
2018-05-03T14:53:44.294Z,32.10
2018-05-03T14:56:11.726Z,32.50
2018-05-03T14:58:39.160Z,32.80
2018-05-03T15:01:06.628Z,32.90
2018-05-03T15:03:34.075Z,33.90
2018-05-03T15:06:02.321Z,34.90
2018-05-03T15:08:29.785Z,34.80
2018-05-03T15:10:57.232Z,35.30
2018-05-03T15:13:24.688Z,35.50
2018-05-03T15:15:52.147Z,36.10
2018-05-03T15:18:19.597Z,36.20
2018-05-03T15:20:47.025Z,36.60
2018-05-03T15:23:14.513Z,37.00
2018-05-03T15:25:41.953Z,37.20
2018-05-03T15:28:09.407Z,37.40
2018-05-03T15:30:36.885Z,38.20
2018-05-03T15:33:05.105Z,38.00
2018-05-03T15:35:32.571Z,37.90
2018-05-03T15:38:00.807Z,38.80
2018-05-03T15:40:28.270Z,38.80
2018-05-03T15:42:55.733Z,39.30
2018-05-03T15:45:24.005Z,40.40
2018-05-03T15:47:51.469Z,40.30
2018-05-03T15:50:18.996Z,40.00
2018-05-03T15:52:46.372Z,40.30
2018-05-03T15:55:13.815Z,40.50
2018-05-03T15:57:41.280Z,40.50
2018-05-03T16:00:08.732Z,40.20
2018-05-03T16:02:36.206Z,40.10
2018-05-03T16:05:03.665Z,40.90
2018-05-03T16:07:31.156Z,40.80
2018-05-03T16:09:58.585Z,41.10
2018-05-03T16:12:26.053Z,41.20
2018-05-03T16:14:53.513Z,41.40
2018-05-03T16:17:20.977Z,41.70
2018-05-03T16:19:49.225Z,41.80
2018-05-03T16:22:16.681Z,41.80
2018-05-03T16:24:44.139Z,41.80
2018-05-03T16:27:11.667Z,42.40
2018-05-03T16:29:39.065Z,42.90
2018-05-03T16:32:06.529Z,43.00
2018-05-03T16:34:34.030Z,43.40
2018-05-03T16:37:01.429Z,43.20
2018-05-03T16:39:28.891Z,43.50
2018-05-03T16:41:56.340Z,43.20
2018-05-03T16:44:23.788Z,43.40
2018-05-03T16:46:51.291Z,43.50
2018-05-03T16:49:18.772Z,44.30
2018-05-03T16:51:46.216Z,44.80
2018-05-03T16:54:13.717Z,45.50
2018-05-03T16:56:41.095Z,44.90
2018-05-03T16:59:08.534Z,44.70
2018-05-03T17:01:36.018Z,44.80
2018-05-03T17:04:03.485Z,44.90
2018-05-03T17:06:31.734Z,44.50
2018-05-03T17:08:59.552Z,44.50
2018-05-03T17:11:26.989Z,44.90
2018-05-03T17:13:54.476Z,44.90
2018-05-03T17:16:21.901Z,44.90
2018-05-03T17:18:49.366Z,45.20
2018-05-03T17:21:16.815Z,45.30
2018-05-03T17:23:44.289Z,45.40
2018-05-03T17:26:12.500Z,45.50
2018-05-03T17:28:39.955Z,45.50
2018-05-03T17:31:07.417Z,45.50
2018-05-03T17:33:34.877Z,45.20
2018-05-03T17:36:02.538Z,44.80
2018-05-03T17:38:29.954Z,44.80
2018-05-03T17:40:57.424Z,44.70
2018-05-03T17:43:25.623Z,44.80
2018-05-03T17:45:53.116Z,44.80
2018-05-03T17:48:20.572Z,44.90
2018-05-03T17:50:48.016Z,45.10
2018-05-03T17:53:15.501Z,45.40
2018-05-03T17:55:42.944Z,45.30
2018-05-03T17:58:10.401Z,45.70
2018-05-03T18:00:37.864Z,46.10
2018-05-03T18:03:05.337Z,46.20
2018-05-03T18:05:32.777Z,46.50
2018-05-03T18:08:00.250Z,46.80
2018-05-03T18:10:27.705Z,47.00
2018-05-03T18:12:55.934Z,47.40
2018-05-03T18:15:23.397Z,47.40
2018-05-03T18:17:50.857Z,48.10
2018-05-03T18:20:18.329Z,48.80
2018-05-03T18:22:45.770Z,49.00
2018-05-03T18:25:13.232Z,50.10
2018-05-03T18:27:40.707Z,49.40
2018-05-03T18:30:08.169Z,49.40
2018-05-03T18:32:35.624Z,50.10
2018-05-03T18:35:03.097Z,50.30
2018-05-03T18:37:30.533Z,50.20
2018-05-03T18:39:57.969Z,50.70
2018-05-03T18:42:25.507Z,51.50
2018-05-03T18:44:52.861Z,51.20
2018-05-03T18:47:20.332Z,51.50
2018-05-03T18:49:47.916Z,51.90
2018-05-03T18:52:15.225Z,52.20
2018-05-03T18:54:42.726Z,52.60
2018-05-03T18:57:10.162Z,52.80
2018-05-03T18:59:37.957Z,52.90
2018-05-03T19:02:05.405Z,53.50
2018-05-03T19:04:32.877Z,53.70
2018-05-03T19:07:00.304Z,54.30
2018-05-03T19:09:27.755Z,54.40
2018-05-03T19:11:55.299Z,54.80
2018-05-03T19:14:22.737Z,55.30
2018-05-03T19:16:50.167Z,55.50
2018-05-03T19:19:18.361Z,56.20
2018-05-03T19:21:46.585Z,56.60
2018-05-03T19:24:14.089Z,56.60
2018-05-03T19:26:42.296Z,57.30
2018-05-03T19:29:11.105Z,57.20
2018-05-03T19:31:38.577Z,57.40
2018-05-03T19:34:06.031Z,58.70
2018-05-03T19:36:33.504Z,59.10
2018-05-03T19:39:01.740Z,59.50
2018-05-03T19:41:29.153Z,59.50
2018-05-03T19:43:56.609Z,59.80
2018-05-03T19:46:24.860Z,60.00
2018-05-03T19:48:52.318Z,60.00
2018-05-03T19:51:19.756Z,60.20
2018-05-03T19:53:47.216Z,60.60
2018-05-03T19:56:14.647Z,60.60
2018-05-03T19:58:42.137Z,61.10
2018-05-03T20:01:09.587Z,61.40
2018-05-03T20:03:37.024Z,61.60
2018-05-03T20:06:04.466Z,62.00
2018-05-03T20:08:31.918Z,62.30
2018-05-03T20:10:59.365Z,62.40
2018-05-03T20:13:26.817Z,62.70
2018-05-03T20:15:54.273Z,63.00
2018-05-03T20:18:21.721Z,63.40
2018-05-03T20:20:49.204Z,63.50
2018-05-03T20:23:16.635Z,63.90
2018-05-03T20:25:44.852Z,64.40
2018-05-03T20:28:12.286Z,64.40
2018-05-03T20:30:39.716Z,64.50
2018-05-03T20:33:07.183Z,64.80
2018-05-03T20:35:35.386Z,65.40
2018-05-03T20:38:02.832Z,65.30
2018-05-03T20:40:30.265Z,65.60
2018-05-03T20:42:58.508Z,66.20
2018-05-03T20:45:25.972Z,66.20
2018-05-03T20:47:53.426Z,66.50
2018-05-03T20:50:20.927Z,66.70
2018-05-03T20:52:49.605Z,67.30
2018-05-03T20:55:17.798Z,67.60
2018-05-03T20:57:45.246Z,67.50
2018-05-03T21:00:12.691Z,67.60
2018-05-03T21:02:40.880Z,67.80
2018-05-03T21:05:08.322Z,67.80
2018-05-03T21:07:36.568Z,68.10
2018-05-03T21:10:04.029Z,68.10
2018-05-03T21:12:31.526Z,68.20
2018-05-03T21:14:58.935Z,68.30
2018-05-03T21:17:26.361Z,68.70
2018-05-03T21:19:53.818Z,68.70
2018-05-03T21:22:21.253Z,68.70
2018-05-03T21:24:48.729Z,68.90
2018-05-03T21:27:16.182Z,69.30
2018-05-03T21:29:43.608Z,69.60
2018-05-03T21:32:11.049Z,69.70
2018-05-03T21:34:38.552Z,70.10
2018-05-03T21:37:06.017Z,70.00
2018-05-03T21:39:33.473Z,70.30
2018-05-03T21:42:00.925Z,70.50
2018-05-03T21:44:28.377Z,70.80
2018-05-03T21:46:55.857Z,70.90
2018-05-03T21:49:23.289Z,71.10
2018-05-03T21:51:50.751Z,71.40
2018-05-03T21:54:18.213Z,71.80
2018-05-03T21:56:45.675Z,71.90
2018-05-03T21:59:13.093Z,72.00
2018-05-03T22:01:40.553Z,72.20
2018-05-03T22:04:08.088Z,72.40
2018-05-03T22:06:35.558Z,72.50
2018-05-03T22:09:03.772Z,72.70
2018-05-03T22:11:31.228Z,72.70
2018-05-03T22:13:58.747Z,72.90
2018-05-03T22:16:26.116Z,73.10
2018-05-03T22:18:53.573Z,73.20
2018-05-03T22:21:21.033Z,73.20
2018-05-03T22:23:48.489Z,73.60
2018-05-03T22:26:15.979Z,73.90
2018-05-03T22:28:43.548Z,74.10
2018-05-03T22:31:11.012Z,74.40
2018-05-03T22:33:38.445Z,74.30
2018-05-03T22:36:05.885Z,74.40
2018-05-03T22:38:33.329Z,74.60
2018-05-03T22:41:00.777Z,74.70
2018-05-03T22:43:28.239Z,75.00
2018-05-03T22:45:55.697Z,75.00
2018-05-03T22:48:23.137Z,75.10
2018-05-03T22:50:51.357Z,75.60
2018-05-03T22:53:18.812Z,75.60
2018-05-03T22:55:46.286Z,75.70
2018-05-03T22:58:13.726Z,76.00
2018-05-03T23:00:41.152Z,76.20
2018-05-03T23:03:08.611Z,76.40
2018-05-03T23:05:36.092Z,76.50
2018-05-03T23:08:03.524Z,76.40
2018-05-03T23:10:31.006Z,76.60
2018-05-03T23:12:58.459Z,76.90
2018-05-03T23:15:25.897Z,76.90
2018-05-03T23:17:53.372Z,77.00
2018-05-03T23:20:20.806Z,77.10
2018-05-03T23:22:49.027Z,77.30
2018-05-03T23:25:16.472Z,77.30
2018-05-03T23:27:43.914Z,77.30
2018-05-03T23:30:11.372Z,77.40
2018-05-03T23:32:38.821Z,77.50
2018-05-03T23:35:06.305Z,77.60
2018-05-03T23:37:33.742Z,77.80
2018-05-03T23:40:01.204Z,77.90
2018-05-03T23:42:28.654Z,78.00
2018-05-03T23:44:56.099Z,78.30
2018-05-03T23:47:23.548Z,78.40
2018-05-03T23:49:51.005Z,78.50
2018-05-03T23:52:18.456Z,78.50
2018-05-03T23:54:46.660Z,78.80
2018-05-03T23:57:14.086Z,78.80
2018-05-03T23:59:42.301Z,79.00
